Time;durP1;ratioP1;P1;durP2;ratioP2;P2;SDS_P1;SDS_P2;PMS_P1;PMS_P2;Temp;Humidity;BMP_temperature;BMP_pressure;BME280_temperature;BME280_humidity;BME280_pressure;Samples;Min_cycle;Max_cycle;Signal;HPM_P1;HPM_P2
2021/11/23 00:02:51;;;;;;;1.45;0.98;;;4.60;99.90;;;;;;21143186;28;20043;-51
2021/11/23 00:12:53;;;;;;;1.45;0.80;;;4.50;99.90;;;;;;21141706;28;20403;-54
2021/11/23 00:22:56;;;;;;;1.88;1.08;;;4.50;99.90;;;;;;21141892;28;20092;-51
2021/11/23 00:33:00;;;;;;;3.03;1.48;;;4.40;99.90;;;;;;21141136;28;20035;-52
2021/11/23 00:43:04;;;;;;;1.38;0.85;;;4.40;99.90;;;;;;21140374;28;20031;-50
2021/11/23 00:53:07;;;;;;;2.08;1.10;;;4.40;99.90;;;;;;21139841;28;20036;-51
2021/11/23 01:03:12;;;;;;;1.63;0.90;;;4.40;99.90;;;;;;21071244;28;20071;-50
2021/11/23 01:13:14;;;;;;;1.30;0.70;;;4.50;99.90;;;;;;21071181;28;20040;-53
2021/11/23 01:23:17;;;;;;;1.33;0.75;;;4.50;99.90;;;;;;21069479;28;20032;-51
2021/11/23 01:33:20;;;;;;;1.17;0.80;;;4.60;99.90;;;;;;21052070;28;20188;-50
2021/11/23 01:43:22;;;;;;;2.00;0.75;;;4.60;99.90;;;;;;21068632;28;20058;-51
2021/11/23 01:53:25;;;;;;;1.30;0.73;;;4.60;99.90;;;;;;21068469;28;20381;-52
2021/11/23 02:03:28;;;;;;;1.67;0.70;;;4.50;99.90;;;;;;21067065;28;20438;-52
2021/11/23 02:13:34;;;;;;;2.67;1.10;;;4.40;99.90;;;;;;21067919;28;20480;-52
2021/11/23 02:23:37;;;;;;;3.33;1.17;;;4.30;99.90;;;;;;21066001;28;20437;-50
2021/11/23 02:33:40;;;;;;;1.88;0.88;;;4.00;99.90;;;;;;21064581;28;20081;-53
2021/11/23 02:43:44;;;;;;;1.33;0.85;;;3.80;99.90;;;;;;21065142;28;20032;-50
2021/11/23 02:53:50;;;;;;;2.33;0.93;;;3.60;99.90;;;;;;21064677;28;20036;-51
2021/11/23 03:03:54;;;;;;;1.15;0.70;;;3.60;99.90;;;;;;21063923;28;20040;-53
2021/11/23 03:13:57;;;;;;;1.75;1.00;;;3.80;99.90;;;;;;21047169;28;20036;-50
2021/11/23 03:24:00;;;;;;;1.23;0.60;;;3.90;99.90;;;;;;21063202;28;20032;-52
2021/11/23 03:34:03;;;;;;;0.90;0.40;;;4.00;99.90;;;;;;21054446;28;20082;-52
2021/11/23 03:44:06;;;;;;;1.02;0.60;;;3.90;99.90;;;;;;21049420;28;20062;-53
2021/11/23 03:54:09;;;;;;;1.08;0.60;;;3.70;99.90;;;;;;21060151;28;20093;-52
2021/11/23 04:04:12;;;;;;;1.10;0.70;;;3.50;99.90;;;;;;21141027;28;20100;-55
2021/11/23 04:14:16;;;;;;;1.20;0.80;;;3.30;99.90;;;;;;21143922;28;20035;-52
2021/11/23 04:24:19;;;;;;;1.13;0.55;;;3.20;99.90;;;;;;21143059;28;20039;-52
2021/11/23 04:34:25;;;;;;;0.95;0.68;;;2.90;99.90;;;;;;21160588;28;20553;-51
2021/11/23 04:44:28;;;;;;;1.70;0.70;;;2.70;99.90;;;;;;21141291;28;20085;-50
2021/11/23 04:54:30;;;;;;;1.45;0.82;;;2.90;99.90;;;;;;21139919;28;20036;-52
2021/11/23 05:04:34;;;;;;;2.03;0.90;;;2.80;99.90;;;;;;21072377;28;20040;-50
2021/11/23 05:14:36;;;;;;;2.40;0.82;;;2.70;99.90;;;;;;21071527;28;20074;-51
2021/11/23 05:24:39;;;;;;;2.38;1.15;;;2.50;99.90;;;;;;21070920;28;20391;-51
2021/11/23 05:34:41;;;;;;;2.10;1.00;;;2.40;99.90;;;;;;21053085;28;20027;-52
2021/11/23 05:44:44;;;;;;;2.50;0.90;;;2.40;99.90;;;;;;21052999;28;20112;-50
2021/11/23 05:54:47;;;;;;;3.13;1.70;;;2.20;99.90;;;;;;21052633;28;20105;-51
2021/11/23 06:04:51;;;;;;;3.90;1.67;;;2.20;99.90;;;;;;21051284;28;20093;-50
2021/11/23 06:14:53;;;;;;;2.53;1.13;;;2.60;99.90;;;;;;21050721;28;20434;-50
2021/11/23 06:24:56;;;;;;;2.10;1.40;;;3.30;99.90;;;;;;21049577;28;20028;-51
2021/11/23 06:34:59;;;;;;;3.92;1.58;;;3.30;99.90;;;;;;21043775;28;20028;-51
2021/11/23 06:45:03;;;;;;;3.25;1.30;;;3.30;99.90;;;;;;21048235;28;20036;-51
2021/11/23 06:55:07;;;;;;;2.03;1.17;;;3.30;99.90;;;;;;21051463;28;20043;-52
2021/11/23 07:05:10;;;;;;;2.65;1.42;;;3.20;99.90;;;;;;21131437;28;20056;-50
2021/11/23 07:15:13;;;;;;;2.10;1.10;;;3.50;99.90;;;;;;21131304;28;20061;-52
2021/11/23 07:25:16;;;;;;;3.17;1.60;;;4.20;99.90;;;;;;21144962;28;20092;-52
2021/11/23 07:35:20;;;;;;;2.08;1.42;;;4.80;99.90;;;;;;21079960;28;20028;-51
2021/11/23 07:45:24;;;;;;;2.63;1.58;;;5.00;99.90;;;;;;21079240;28;20024;-50
2021/11/23 07:55:27;;;;;;;4.18;1.70;;;4.90;99.90;;;;;;21084692;28;20430;-51
2021/11/23 08:05:33;;;;;;;3.67;1.92;;;5.00;99.90;;;;;;21145659;28;20023;-54
2021/11/23 08:15:37;;;;;;;2.20;1.42;;;5.20;99.90;;;;;;21135610;28;20043;-51
2021/11/23 08:25:39;;;;;;;3.60;1.83;;;5.40;99.90;;;;;;21143669;28;20077;-53
2021/11/23 08:35:42;;;;;;;3.88;1.75;;;5.60;99.90;;;;;;21141301;28;20035;-53
2021/11/23 08:45:49;;;;;;;3.88;2.28;;;5.60;99.90;;;;;;21147326;28;20035;-54
2021/11/23 15:09:24;;;;;;;11.13;3.95;;;3.60;99.90;;;;;;21056472;27;2417713;-53
2021/11/23 15:19:30;;;;;;;8.00;4.38;;;2.80;99.90;;;;;;21023254;28;20036;-54
2021/11/23 15:29:32;;;;;;;11.65;4.72;;;2.40;99.90;;;;;;21038348;28;20029;-53
2021/11/23 15:39:35;;;;;;;10.07;4.60;;;2.00;99.90;;;;;;21037525;28;20506;-50
2021/11/23 15:49:38;;;;;;;9.10;4.55;;;1.80;99.90;;;;;;21036480;28;20434;-51
2021/11/23 15:59:42;;;;;;;9.93;5.47;;;1.40;99.90;;;;;;21035508;28;20048;-53
2021/11/23 16:09:46;;;;;;;9.13;5.50;;;1.20;99.90;;;;;;20982736;28;20044;-55
2021/11/23 16:19:49;;;;;;;11.25;5.15;;;1.00;99.90;;;;;;20980082;28;20041;-53
2021/11/23 16:29:58;;;;;;;12.02;6.03;;;0.90;99.90;;;;;;20977911;28;20036;-50
2021/11/23 16:40:01;;;;;;;11.43;5.68;;;0.70;99.90;;;;;;20977091;28;20656;-53
2021/11/23 16:50:06;;;;;;;10.95;6.68;;;0.60;99.90;;;;;;20976529;28;20041;-54
2021/11/23 17:00:15;;;;;;;10.43;6.32;;;0.50;99.90;;;;;;20975453;28;20040;-52
2021/11/23 17:10:17;;;;;;;9.73;5.35;;;0.50;99.90;;;;;;20974667;28;20098;-51
2021/11/23 17:20:20;;;;;;;10.48;5.65;;;0.50;99.90;;;;;;20972862;28;20044;-51
2021/11/23 17:30:23;;;;;;;9.48;6.00;;;0.30;99.90;;;;;;20972833;28;20366;-52
2021/11/23 17:40:26;;;;;;;10.98;5.63;;;0.20;99.90;;;;;;20972182;28;20032;-53
2021/11/23 17:50:29;;;;;;;11.40;6.25;;;0.10;99.90;;;;;;20971366;28;20032;-50
2021/11/23 18:00:36;;;;;;;13.05;6.68;;;0.10;99.90;;;;;;20970692;28;20082;-52
2021/11/23 18:10:39;;;;;;;14.48;7.13;;;0.00;99.90;;;;;;20731166;28;20046;-53
2021/11/23 18:20:47;;;;;;;17.17;8.68;;;0.10;99.90;;;;;;20714646;28;20112;-51
2021/11/23 18:30:51;;;;;;;25.42;11.23;;;0.00;99.90;;;;;;20714243;28;20042;-51
2021/11/23 18:40:55;;;;;;;19.13;9.40;;;0.10;99.90;;;;;;20713633;28;20041;-50
2021/11/23 18:50:58;;;;;;;19.23;9.70;;;0.20;99.90;;;;;;20809179;28;20052;-54
2021/11/23 19:01:01;;;;;;;20.30;10.57;;;0.20;99.90;;;;;;20967445;28;20505;-53
2021/11/23 19:11:04;;;;;;;21.83;10.63;;;0.00;99.90;;;;;;20967257;28;20048;-50
2021/11/23 19:21:08;;;;;;;16.52;8.95;;;0.00;99.90;;;;;;20967811;28;20093;-49
2021/11/23 19:31:10;;;;;;;20.25;10.55;;;0.30;99.90;;;;;;20966379;28;20067;-49
2021/11/23 19:41:15;;;;;;;14.70;6.63;;;0.30;99.90;;;;;;20972276;28;20115;-50
2021/11/23 19:51:17;;;;;;;17.13;8.50;;;0.30;99.90;;;;;;20978131;28;20094;-54
2021/11/23 20:01:21;;;;;;;20.58;9.80;;;0.40;99.90;;;;;;20979574;28;20044;-53
2021/11/23 20:11:24;;;;;;;12.77;6.28;;;0.20;99.90;;;;;;20979851;28;20481;-49
2021/11/23 20:21:28;;;;;;;10.82;5.78;;;0.00;99.90;;;;;;20979475;28;20495;-54
2021/11/23 20:31:31;;;;;;;15.07;8.13;;;-0.10;99.90;;;;;;20977761;28;20396;-49
2021/11/23 20:41:34;;;;;;;12.63;5.82;;;0.10;99.90;;;;;;20976805;28;20041;-51
2021/11/23 20:51:39;;;;;;;16.20;7.65;;;0.10;99.90;;;;;;20975821;28;20098;-50
2021/11/23 21:01:41;;;;;;;17.80;8.48;;;0.20;99.90;;;;;;20974862;28;20044;-49
2021/11/23 21:11:44;;;;;;;15.15;6.95;;;0.20;99.90;;;;;;20974415;28;20489;-54
2021/11/23 21:21:47;;;;;;;7.30;4.28;;;0.20;99.90;;;;;;20973302;28;20054;-50
2021/11/23 21:31:50;;;;;;;11.80;5.90;;;0.30;99.90;;;;;;20972441;28;20086;-53
2021/11/23 21:41:52;;;;;;;26.27;11.95;;;0.40;99.90;;;;;;20971785;28;20040;-50
2021/11/23 21:51:55;;;;;;;17.75;8.65;;;0.50;99.90;;;;;;20970709;28;20094;-49
2021/11/23 22:01:58;;;;;;;19.58;9.20;;;0.40;99.90;;;;;;20969809;28;20052;-49
2021/11/23 22:12:01;;;;;;;13.02;5.57;;;0.30;99.90;;;;;;20969580;28;20036;-49
2021/11/23 22:22:03;;;;;;;9.70;5.00;;;0.10;99.90;;;;;;20969463;28;20400;-54
2021/11/23 22:32:07;;;;;;;15.20;6.95;;;0.30;99.90;;;;;;20968591;28;20037;-49
2021/11/23 22:42:10;;;;;;;13.07;6.30;;;0.30;99.90;;;;;;20967983;28;20041;-52
2021/11/23 22:52:13;;;;;;;17.38;8.10;;;0.10;99.90;;;;;;20967449;28;20086;-54
2021/11/23 23:02:16;;;;;;;16.40;8.43;;;0.10;99.90;;;;;;20966823;28;20463;-49
2021/11/23 23:12:19;;;;;;;10.55;5.38;;;0.00;99.90;;;;;;20969028;28;20074;-52
2021/11/23 23:22:21;;;;;;;11.88;6.28;;;0.00;99.90;;;;;;20984045;28;20416;-50
2021/11/23 23:32:24;;;;;;;8.57;4.93;;;-0.10;99.90;;;;;;20982012;28;20036;-53
2021/11/23 23:42:26;;;;;;;8.52;4.32;;;-0.10;99.90;;;;;;20981490;28;20040;-51
2021/11/23 23:52:29;;;;;;;14.85;7.40;;;-0.10;99.90;;;;;;20964022;28;20481;-53
